Startpagina
METAR-TAF:

METAR-TAF

Vliegvelden :

Luchthaven Diori Hamani

Niamey, Niger

breedte: 13-29N, lengte: 002-10E, hoogte: 223 m

Actueel weer

Dit bericht is 54 minuten geleden gemaakt, om 06:00 UTC
Wind 5 kt uit het westzuidwesten
Temperatuur 28°C
Vochtigheid 79%
Druk 1010 hPa
Zicht 10 km of meer
geen wolken onder 1500 m en geen cumulonimbus

METAR: DRRN 220600Z 24005KT CAVOK 28/24 Q1010 NOSIG

Tijdstip: 07:54 (06:54 UTC)

Verwachting

Dit bericht is 1 uur en het 54 minuten geleden gemaakt, om 05:00 UTC
Verwachting geldig van 22 om 06 UTC tot 23 om 12 UTC
Wind 10 kt uit het westzuidwesten
Zicht 10 km of meer
Weinig wolken op 3000 ft
Kans 40% :
Tijdelijke
van 22 om 13 UTC tot 22 om 19 UTC
Wind 30 kt uit variabele richting
Zicht: 1200 m
Verspreide wolken op 2000 ft
Weinig wolken op 2600 ft, Cumulonimbus.
Stuifstof, onweer, lichte regen

TAF: DRRN 220500Z 2206/2312 24010KT 9999 FEW030 PROB40 TEMPO 2213/2219 VRB30KT 1200 BLDU -TSRA SCT020 FEW026CB

Waarnemingen en weersverwachtingen van meer dan 4000 vliegvelden (METAR en TAF).

De beschikbare stations zijn de gele en rode punten op de kaart.

Ga met uw muis naar het station om de naam te zien.

Klik dan om waarnemingen en weersverwachtingen te zien.

kaart wijzigen: klik op de groene knoppen met een zwart kruis om in te zoomen, op de groene knop met een streepje om uit te zoomen of op de groene pijlen voor aangrenzende kaarten.


METAR-TAF: